Time;durP1;ratioP1;P1;durP2;ratioP2;P2;SDS_P1;SDS_P2;PMS_P1;PMS_P2;Temp;Humidity;BMP_temperature;BMP_pressure;BME280_temperature;BME280_humidity;BME280_pressure;Samples;Min_cycle;Max_cycle;Signal;HPM_P1;HPM_P2
2023/12/17 00:00:51;;;;;;;67.72;41.85;;;;;;;7.47;100.00;103645.19;4985169;28;20046;-81
2023/12/17 00:03:17;;;;;;;66.00;41.83;;;;;;;7.46;100.00;103640.75;4987080;28;20480;-81
2023/12/17 00:05:42;;;;;;;64.43;40.63;;;;;;;7.47;100.00;103645.19;4983347;28;20026;-80
2023/12/17 00:08:07;;;;;;;62.90;40.63;;;;;;;7.48;100.00;103641.69;4983169;28;20120;-80
2023/12/17 00:10:35;;;;;;;66.38;40.13;;;;;;;7.48;100.00;103643.41;4984355;28;20030;-78
2023/12/17 00:13:01;;;;;;;66.97;40.95;;;;;;;7.47;100.00;103639.88;4984661;28;20516;-80
2023/12/17 00:15:26;;;;;;;69.32;41.53;;;;;;;7.41;100.00;103626.59;4979488;28;20110;-80
2023/12/17 00:17:51;;;;;;;67.43;41.55;;;;;;;7.43;100.00;103635.44;4976116;28;20275;-78
2023/12/17 00:20:17;;;;;;;71.22;41.97;;;;;;;7.46;100.00;103635.47;4980817;28;20065;-78
2023/12/17 00:22:42;;;;;;;70.72;43.10;;;;;;;7.47;100.00;103631.94;4973987;28;20069;-80
2023/12/17 00:25:08;;;;;;;69.60;42.42;;;;;;;7.45;100.00;103628.41;4972780;28;20035;-79
2023/12/17 00:27:36;;;;;;;68.72;41.80;;;;;;;7.39;100.00;103620.38;4979119;28;20127;-78
2023/12/17 00:30:01;;;;;;;69.55;42.65;;;;;;;7.46;100.00;103630.16;4980145;28;20038;-80
2023/12/17 00:32:26;;;;;;;68.43;41.35;;;;;;;7.45;100.00;103616.91;5007170;22;20115;-82
2023/12/17 00:34:52;;;;;;;70.25;42.20;;;;;;;7.46;100.00;103616.03;4994888;28;20057;-84
2023/12/17 00:37:17;;;;;;;71.32;42.67;;;;;;;7.44;100.00;103613.38;4995703;28;20536;-83
2023/12/17 00:39:43;;;;;;;72.60;42.30;;;;;;;7.46;100.00;103623.97;4996248;28;20570;-81
2023/12/17 00:42:08;;;;;;;66.32;41.08;;;;;;;7.48;100.00;103616.91;5024836;28;20534;-81
2023/12/17 00:44:33;;;;;;;69.78;41.17;;;;;;;7.48;100.00;103606.31;5019748;28;20242;-82
2023/12/17 00:47:00;;;;;;;66.70;41.80;;;;;;;7.49;100.00;103605.44;5009290;28;20033;-81
2023/12/17 00:49:25;;;;;;;66.45;39.75;;;;;;;7.51;100.00;103600.16;5018382;28;20037;-82
2023/12/17 00:51:50;;;;;;;62.47;39.55;;;;;;;7.47;100.00;103596.59;5012128;28;20593;-82
2023/12/17 00:54:16;;;;;;;67.93;40.75;;;;;;;7.50;100.00;103601.91;5019587;28;20038;-82
2023/12/17 00:56:41;;;;;;;67.63;40.47;;;;;;;7.48;100.00;103599.28;5016371;28;20435;-82
2023/12/17 00:59:07;;;;;;;66.93;40.17;;;;;;;7.48;100.00;103604.56;5006466;28;20192;-82
2023/12/17 01:01:38;;;;;;;69.00;40.42;;;;;;;7.43;100.00;103597.44;5017756;28;20049;-81
2023/12/17 01:04:03;;;;;;;67.68;41.00;;;;;;;7.37;100.00;103592.13;5014578;28;20041;-82
2023/12/17 01:06:29;;;;;;;61.75;38.03;;;;;;;7.48;100.00;103608.97;5020433;28;20053;-82
2023/12/17 01:08:55;;;;;;;69.45;41.10;;;;;;;7.47;100.00;103604.53;5012853;28;20064;-83
2023/12/17 01:11:20;;;;;;;66.88;40.50;;;;;;;7.45;100.00;103595.72;5010858;28;20504;-82
2023/12/17 01:13:45;;;;;;;63.17;39.10;;;;;;;7.49;100.00;103605.44;5014555;28;20519;-83
2023/12/17 01:16:11;;;;;;;64.22;36.85;;;;;;;7.51;100.00;103594.84;5013030;28;20491;-82
2023/12/17 01:18:36;;;;;;;60.63;36.20;;;;;;;7.52;100.00;103593.97;5016344;28;20481;-83
2023/12/17 01:21:02;;;;;;;58.13;36.45;;;;;;;7.52;100.00;103584.25;4996349;28;20037;-83
2023/12/17 01:23:27;;;;;;;51.53;34.03;;;;;;;7.52;100.00;103586.91;5013485;28;20060;-83
2023/12/17 01:25:52;;;;;;;56.33;35.55;;;;;;;7.47;100.00;103578.03;5002234;28;20484;-83
2023/12/17 01:28:18;;;;;;;57.20;35.30;;;;;;;7.49;100.00;103582.50;5017020;28;20029;-83
2023/12/17 01:30:43;;;;;;;51.50;34.85;;;;;;;7.42;100.00;103574.47;5012166;28;20041;-83
2023/12/17 01:33:09;;;;;;;49.88;32.67;;;;;;;7.42;100.00;103567.41;5012915;28;20473;-83
2023/12/17 01:35:34;;;;;;;49.65;33.00;;;;;;;7.50;100.00;103586.03;4997146;28;20037;-83
2023/12/17 01:38:00;;;;;;;50.33;32.65;;;;;;;7.43;100.00;103576.25;5016301;28;20046;-83
2023/12/17 01:40:25;;;;;;;49.80;31.70;;;;;;;7.47;100.00;103591.28;5006561;28;20353;-83
2023/12/17 01:42:55;;;;;;;49.42;31.92;;;;;;;7.36;100.00;103583.28;5023510;28;20175;-83
2023/12/17 01:45:21;;;;;;;48.38;31.73;;;;;;;7.43;100.00;103597.44;5004738;28;20037;-83
2023/12/17 01:47:47;;;;;;;46.72;31.13;;;;;;;7.47;100.00;103613.38;5017399;28;20510;-82
2023/12/17 01:50:12;;;;;;;49.03;32.17;;;;;;;7.45;100.00;103609.84;5024974;28;20072;-83
2023/12/17 01:52:38;;;;;;;45.70;31.08;;;;;;;7.49;100.00;103616.06;5019938;28;20072;-83
2023/12/17 01:55:04;;;;;;;44.50;30.23;;;;;;;7.44;100.00;103616.03;5003679;28;20029;-83
2023/12/17 01:57:30;;;;;;;44.53;30.55;;;;;;;7.39;100.00;103609.78;5007940;28;20383;-83
2023/12/17 01:59:57;;;;;;;43.00;29.25;;;;;;;7.40;100.00;103610.69;5019792;28;20038;-83
2023/12/17 02:02:23;;;;;;;43.20;29.02;;;;;;;7.48;100.00;103622.22;5019343;28;20037;-82
2023/12/17 02:04:49;;;;;;;43.42;29.23;;;;;;;7.49;100.00;103635.50;5016058;28;20052;-83
2023/12/17 02:07:14;;;;;;;41.25;28.38;;;;;;;7.48;100.00;103628.44;5001879;28;20057;-82
2023/12/17 02:09:41;;;;;;;43.85;29.20;;;;;;;7.48;100.00;103622.22;5012870;28;20148;-82
2023/12/17 02:12:06;;;;;;;41.90;28.35;;;;;;;7.38;100.00;103597.44;5011481;28;20124;-82
2023/12/17 02:14:32;;;;;;;42.35;27.95;;;;;;;7.49;100.00;103616.94;5011634;28;20127;-81
2023/12/17 02:16:57;;;;;;;40.85;27.45;;;;;;;7.45;100.00;103617.78;5003085;28;20131;-82
2023/12/17 02:19:23;;;;;;;41.75;26.85;;;;;;;7.47;100.00;103609.84;5020156;28;20104;-83
2023/12/17 02:21:48;;;;;;;42.05;27.10;;;;;;;7.49;100.00;103610.75;5015154;28;20036;-82
2023/12/17 02:24:14;;;;;;;42.47;27.60;;;;;;;7.46;100.00;103603.66;5013589;28;20041;-83
2023/12/17 02:26:43;;;;;;;37.92;26.73;;;;;;;7.48;100.00;103603.66;5014381;28;20068;-83
2023/12/17 02:29:08;;;;;;;40.08;26.98;;;;;;;7.46;100.00;103606.31;5018246;28;20048;-82
2023/12/17 02:31:33;;;;;;;41.22;27.50;;;;;;;7.42;100.00;103590.38;5012342;28;20459;-82
2023/12/17 02:33:59;;;;;;;38.78;26.40;;;;;;;7.41;100.00;103597.44;5018149;28;20488;-81
2023/12/17 02:36:24;;;;;;;38.65;27.52;;;;;;;7.46;100.00;103605.44;5012219;28;20038;-81
2023/12/17 02:38:49;;;;;;;41.25;27.58;;;;;;;7.42;100.00;103591.28;5007022;28;20485;-82
2023/12/17 02:41:15;;;;;;;38.55;27.27;;;;;;;7.48;100.00;103604.56;5005847;28;20522;-82
2023/12/17 02:43:40;;;;;;;36.13;26.40;;;;;;;7.47;100.00;103604.53;5011288;28;20045;-81
2023/12/17 02:46:06;;;;;;;39.72;27.48;;;;;;;7.45;100.00;103598.38;5019533;28;20030;-82
2023/12/17 02:48:32;;;;;;;39.88;28.05;;;;;;;7.37;100.00;103589.47;5011173;28;20491;-82
2023/12/17 02:50:58;;;;;;;39.90;26.77;;;;;;;7.46;100.00;103606.31;5015940;28;20099;-82
2023/12/17 02:53:24;;;;;;;38.55;27.30;;;;;;;7.39;100.00;103599.19;5044777;28;20369;-82
2023/12/17 02:55:49;;;;;;;39.72;27.98;;;;;;;7.45;100.00;103607.19;5002969;28;20033;-85
2023/12/17 02:58:15;;;;;;;37.20;26.63;;;;;;;7.45;100.00;103601.91;5017347;28;20213;-86
2023/12/17 03:00:40;;;;;;;40.22;27.45;;;;;;;7.41;100.00;103586.84;5016612;28;20038;-88
2023/12/17 03:03:06;;;;;;;39.80;27.77;;;;;;;7.45;100.00;103591.28;5000717;28;20523;-88
2023/12/17 03:05:31;;;;;;;37.80;26.95;;;;;;;7.45;100.00;103593.06;5018202;28;20502;-86
2023/12/17 03:07:57;;;;;;;40.17;27.70;;;;;;;7.42;100.00;103585.97;5010941;28;20034;-89
2023/12/17 03:10:22;;;;;;;39.00;26.88;;;;;;;7.37;100.00;103574.47;5021757;28;20037;-88
2023/12/17 03:12:47;;;;;;;38.28;26.25;;;;;;;7.44;100.00;103583.31;5013973;28;20254;-88
2023/12/17 03:15:13;;;;;;;39.47;26.33;;;;;;;7.34;100.00;103565.59;5006488;28;20033;-88
2023/12/17 03:17:38;;;;;;;36.65;26.15;;;;;;;7.46;100.00;103594.81;5015712;28;20042;-85
2023/12/17 03:20:04;;;;;;;38.55;26.35;;;;;;;7.46;100.00;103592.19;5015897;28;20140;-86
2023/12/17 03:22:31;;;;;;;39.40;26.23;;;;;;;7.37;100.00;103581.53;5016575;28;20079;-88
2023/12/17 03:24:56;;;;;;;39.75;27.80;;;;;;;7.45;100.00;103601.00;5023438;28;20030;-88
2023/12/17 03:27:22;;;;;;;40.40;27.63;;;;;;;7.40;100.00;103584.19;5028436;28;20041;-88
2023/12/17 03:29:47;;;;;;;39.65;26.02;;;;;;;7.39;100.00;103579.75;5017541;28;20184;-85
2023/12/17 03:32:14;;;;;;;35.55;26.55;;;;;;;7.45;100.00;103578.03;5016651;28;20107;-87
2023/12/17 03:34:40;;;;;;;40.28;25.80;;;;;;;7.39;100.00;103570.03;5020680;28;20044;-89
2023/12/17 03:37:05;;;;;;;38.30;25.33;;;;;;;7.41;100.00;103568.31;5021776;28;20038;-85
2023/12/17 03:39:31;;;;;;;38.95;25.83;;;;;;;7.40;100.00;103571.84;5018232;28;20049;-86
2023/12/17 03:41:56;;;;;;;35.22;24.75;;;;;;;7.42;100.00;103567.41;5011993;28;20130;-89
2023/12/17 03:44:21;;;;;;;34.85;24.85;;;;;;;7.42;100.00;103570.06;5023526;28;20084;-88
2023/12/17 03:46:47;;;;;;;34.97;24.88;;;;;;;7.42;100.00;103578.00;5030042;28;20124;-87
2023/12/17 03:49:12;;;;;;;36.67;24.45;;;;;;;7.43;100.00;103576.25;5020495;28;20108;-87
2023/12/17 03:51:37;;;;;;;34.67;24.90;;;;;;;7.38;100.00;103564.75;5023171;28;20042;-88
2023/12/17 03:54:06;;;;;;;33.47;23.90;;;;;;;7.36;100.00;103562.09;5019678;28;20098;-85
2023/12/17 03:56:31;;;;;;;35.08;23.63;;;;;;;7.41;100.00;103570.94;5019213;28;20608;-89
2023/12/17 03:58:56;;;;;;;36.55;23.73;;;;;;;7.32;100.00;103549.72;5018522;28;20030;-85
2023/12/17 04:01:23;;;;;;;34.97;22.63;;;;;;;7.37;100.00;103555.03;5018374;28;20042;-89
2023/12/17 04:03:48;;;;;;;33.45;22.50;;;;;;;7.39;100.00;103556.78;5015331;28;20030;-86
2023/12/17 04:06:13;;;;;;;31.27;22.42;;;;;;;7.39;100.00;103558.56;5022509;28;20495;-88
2023/12/17 04:08:39;;;;;;;32.97;22.35;;;;;;;7.37;100.00;103555.03;5006598;28;20309;-88
2023/12/17 04:11:04;;;;;;;38.60;23.90;;;;;;;7.35;100.00;103546.16;4997295;28;20121;-88
2023/12/17 04:13:29;;;;;;;34.78;23.42;;;;;;;7.36;100.00;103542.66;5016864;28;20068;-89
2023/12/17 04:15:55;;;;;;;32.90;23.33;;;;;;;7.34;100.00;103534.69;5011094;28;20034;-89
2023/12/17 04:18:20;;;;;;;32.20;23.40;;;;;;;7.33;100.00;103546.19;5005555;28;20132;-86
2023/12/17 04:20:46;;;;;;;30.10;22.30;;;;;;;7.17;100.00;103515.16;5014703;28;20042;-87
2023/12/17 04:23:11;;;;;;;34.80;22.77;;;;;;;7.26;100.00;103530.22;5014759;28;20033;-88
2023/12/17 04:25:36;;;;;;;30.42;22.30;;;;;;;7.35;100.00;103544.41;4993574;28;20045;-89
2023/12/17 04:28:03;;;;;;;29.88;22.25;;;;;;;7.34;100.00;103537.34;5020980;28;20069;-88
2023/12/17 04:30:29;;;;;;;36.08;23.42;;;;;;;7.24;100.00;103531.13;5006155;28;20152;-89
2023/12/17 04:32:54;;;;;;;34.75;23.85;;;;;;;7.33;100.00;103538.22;5022207;28;20317;-86
2023/12/17 04:35:20;;;;;;;30.45;22.65;;;;;;;7.33;100.00;103534.69;5019318;28;20045;-89
2023/12/17 04:37:45;;;;;;;36.25;23.73;;;;;;;7.31;100.00;103537.31;5003047;28;20025;-88
2023/12/17 04:40:11;;;;;;;35.13;24.83;;;;;;;7.24;100.00;103524.94;5021998;28;20192;-89
2023/12/17 04:42:36;;;;;;;32.20;22.42;;;;;;;7.30;100.00;103539.97;5015770;28;20168;-86
2023/12/17 04:45:04;;;;;;;31.63;22.38;;;;;;;7.30;100.00;103538.19;5019062;28;20068;-88
2023/12/17 04:47:29;;;;;;;36.20;23.10;;;;;;;7.28;100.00;103541.75;5025210;28;20072;-89
2023/12/17 04:49:55;;;;;;;33.92;24.10;;;;;;;7.29;100.00;103541.72;5008610;28;20041;-89
2023/12/17 04:52:20;;;;;;;33.95;23.25;;;;;;;7.23;100.00;103539.03;5023060;28;20052;-87
2023/12/17 04:54:45;;;;;;;35.35;23.58;;;;;;;7.29;100.00;103543.50;5014013;28;20153;-91
2023/12/17 04:57:11;;;;;;;36.47;24.63;;;;;;;7.22;100.00;103531.97;5019382;28;20237;-89
2023/12/17 04:59:36;;;;;;;35.75;24.48;;;;;;;7.26;100.00;103536.41;5021638;28;20049;-86
2023/12/17 05:02:02;;;;;;;34.88;24.63;;;;;;;7.27;100.00;103527.56;5005466;28;20037;-87
2023/12/17 05:04:27;;;;;;;37.20;25.08;;;;;;;7.26;100.00;103528.47;5014169;28;20030;-87
2023/12/17 05:06:53;;;;;;;36.92;24.63;;;;;;;7.20;100.00;103518.72;5013064;28;20361;-89
2023/12/17 05:09:18;;;;;;;34.72;24.17;;;;;;;7.27;100.00;103527.56;5018897;28;20400;-88
2023/12/17 05:11:43;;;;;;;37.90;24.65;;;;;;;7.26;100.00;103531.09;5020538;28;20049;-88
2023/12/17 05:14:09;;;;;;;36.55;24.42;;;;;;;7.24;100.00;103527.59;5024496;28;20053;-89
2023/12/17 05:16:35;;;;;;;39.72;24.70;;;;;;;7.16;100.00;103510.75;5031264;28;20044;-87
2023/12/17 05:19:00;;;;;;;33.83;23.52;;;;;;;7.24;100.00;103525.81;5019968;28;20076;-85
2023/12/17 05:21:25;;;;;;;35.40;24.20;;;;;;;7.22;100.00;103519.59;5020713;28;20136;-85
2023/12/17 05:23:51;;;;;;;35.58;23.50;;;;;;;7.23;100.00;103517.84;5011880;28;20419;-86
2023/12/17 05:26:16;;;;;;;34.20;23.83;;;;;;;7.15;100.00;103515.16;5018348;28;20567;-88
2023/12/17 05:28:41;;;;;;;34.72;23.35;;;;;;;7.23;100.00;103526.69;5021724;28;20033;-86
2023/12/17 05:31:07;;;;;;;36.20;24.27;;;;;;;7.21;100.00;103520.50;5018537;28;20509;-86
2023/12/17 05:33:36;;;;;;;33.33;22.92;;;;;;;7.15;100.00;103516.94;5017756;28;20489;-88
2023/12/17 05:36:04;;;;;;;33.95;23.40;;;;;;;7.19;100.00;103524.91;5018629;28;20063;-88
2023/12/17 05:38:30;;;;;;;34.33;23.48;;;;;;;7.16;100.00;103526.66;4998703;28;20040;-87
2023/12/17 05:40:55;;;;;;;35.53;23.42;;;;;;;7.19;100.00;103518.69;5017009;28;20403;-89
2023/12/17 05:43:21;;;;;;;33.92;23.67;;;;;;;7.17;100.00;103524.00;5018414;28;20403;-87
2023/12/17 05:45:46;;;;;;;33.22;24.48;;;;;;;7.11;100.00;103510.72;5022166;28;20573;-88
2023/12/17 05:48:11;;;;;;;29.83;22.30;;;;;;;7.16;100.00;103526.66;5018096;28;20472;-89
2023/12/17 05:50:37;;;;;;;29.73;21.40;;;;;;;7.15;100.00;103525.75;5023922;28;20487;-87
2023/12/17 05:53:03;;;;;;;31.02;22.23;;;;;;;7.10;100.00;103523.94;5009370;28;20495;-89
2023/12/17 05:55:28;;;;;;;31.20;21.75;;;;;;;7.12;100.00;103522.22;5017105;28;20038;-89
2023/12/17 05:57:53;;;;;;;29.80;21.38;;;;;;;7.10;100.00;103519.53;5018077;28;20088;-88
2023/12/17 06:00:19;;;;;;;31.08;22.15;;;;;;;7.13;100.00;103516.91;5023320;28;20037;-86
2023/12/17 06:02:44;;;;;;;29.67;21.20;;;;;;;7.06;100.00;103503.63;5018126;28;20124;-87
2023/12/17 06:05:11;;;;;;;29.23;20.90;;;;;;;7.12;100.00;103517.78;5007872;28;20033;-87
2023/12/17 06:07:36;;;;;;;30.80;20.92;;;;;;;7.04;100.00;103503.63;5024845;28;20111;-85
2023/12/17 06:10:01;;;;;;;28.85;20.02;;;;;;;7.04;100.00;103497.44;5020765;28;20049;-88
2023/12/17 06:12:29;;;;;;;28.27;21.42;;;;;;;7.07;100.00;103508.94;5020163;28;20060;-86
2023/12/17 06:14:55;;;;;;;29.55;21.38;;;;;;;7.06;100.00;103504.50;5015001;28;20087;-88
2023/12/17 06:17:20;;;;;;;27.48;19.55;;;;;;;7.04;100.00;103505.38;5022047;28;20029;-87
2023/12/17 06:19:46;;;;;;;31.77;21.35;;;;;;;7.01;100.00;103500.06;5017445;28;20148;-87
2023/12/17 06:22:15;;;;;;;30.42;20.70;;;;;;;6.96;100.00;103495.63;5017229;28;20087;-87
2023/12/17 06:24:41;;;;;;;27.02;19.38;;;;;;;6.98;100.00;103507.13;5004719;28;20037;-85
2023/12/17 06:27:14;;;;;;;29.08;20.52;;;;;;;6.99;100.00;103518.59;5021955;28;20044;-84
2023/12/17 06:29:40;;;;;;;29.15;20.17;;;;;;;6.87;100.00;103505.28;4998044;28;20053;-84
2023/12/17 06:32:07;;;;;;;28.30;19.25;;;;;;;6.89;100.00;103506.16;5019215;28;20045;-85
2023/12/17 06:34:33;;;;;;;24.65;17.65;;;;;;;6.88;100.00;103514.97;5023878;28;20073;-86
2023/12/17 06:36:58;;;;;;;26.50;18.80;;;;;;;6.92;100.00;103524.72;5020067;28;20068;-87
2023/12/17 06:39:24;;;;;;;25.13;17.52;;;;;;;6.89;100.00;103517.63;5012441;28;20038;-87
2023/12/17 06:41:49;;;;;;;25.88;17.83;;;;;;;6.80;100.00;103504.31;5014968;28;20095;-86
2023/12/17 06:44:16;;;;;;;28.30;18.55;;;;;;;6.85;100.00;103518.47;5014387;28;20036;-88
2023/12/17 06:46:41;;;;;;;24.13;17.00;;;;;;;6.88;100.00;103523.81;5022057;28;20021;-87
2023/12/17 06:49:06;;;;;;;23.83;16.75;;;;;;;6.86;100.00;103525.56;4999775;28;20052;-89
2023/12/17 06:51:32;;;;;;;23.25;16.55;;;;;;;6.78;100.00;103515.78;5020957;28;20044;-87
2023/12/17 06:53:58;;;;;;;25.80;17.23;;;;;;;6.72;100.00;103506.91;5020776;28;20178;-87
2023/12/17 06:56:23;;;;;;;21.67;16.25;;;;;;;6.81;100.00;103526.38;5021888;28;20284;-85
2023/12/17 06:58:48;;;;;;;22.35;16.05;;;;;;;6.81;100.00;103523.75;5012853;28;20507;-87
2023/12/17 07:01:16;;;;;;;23.15;16.38;;;;;;;6.81;100.00;103521.97;5017847;28;20510;-86
2023/12/17 07:03:42;;;;;;;21.65;15.98;;;;;;;6.78;100.00;103526.38;5015322;28;20060;-88
2023/12/17 07:06:11;;;;;;;22.30;16.20;;;;;;;6.73;100.00;103516.66;5017639;28;20417;-86
2023/12/17 07:08:37;;;;;;;22.17;15.45;;;;;;;6.72;100.00;103506.03;5008614;28;20117;-87
2023/12/17 07:11:02;;;;;;;20.45;14.95;;;;;;;6.76;100.00;103523.72;5020164;28;20068;-87
2023/12/17 07:13:31;;;;;;;19.63;14.50;;;;;;;6.70;100.00;103513.97;5003653;28;20124;-86
2023/12/17 07:15:56;;;;;;;19.67;14.00;;;;;;;6.72;100.00;103516.63;5020330;28;20030;-87
2023/12/17 07:18:22;;;;;;;19.88;13.75;;;;;;;6.73;100.00;103510.47;5019530;28;20063;-87
2023/12/17 07:20:47;;;;;;;19.55;13.45;;;;;;;6.69;100.00;103509.56;5028446;28;20315;-88
2023/12/17 07:23:13;;;;;;;20.27;14.57;;;;;;;6.65;100.00;103507.75;5017407;28;20091;-86
2023/12/17 07:25:38;;;;;;;20.05;14.07;;;;;;;6.66;100.00;103519.22;5010124;28;20246;-88
2023/12/17 07:28:04;;;;;;;18.83;13.65;;;;;;;6.66;100.00;103521.88;5023240;28;20124;-88
2023/12/17 07:30:30;;;;;;;17.67;13.43;;;;;;;6.62;100.00;103520.97;5002315;28;20069;-88
2023/12/17 07:32:55;;;;;;;17.55;13.20;;;;;;;6.57;100.00;103512.09;5017791;28;20276;-88
2023/12/17 07:35:21;;;;;;;17.17;12.95;;;;;;;6.63;100.00;103527.13;5021164;28;20492;-86
2023/12/17 07:37:49;;;;;;;16.17;12.50;;;;;;;6.57;100.00;103521.81;5025083;28;20036;-88
2023/12/17 07:40:14;;;;;;;15.02;11.77;;;;;;;6.56;100.00;103520.00;5019081;28;20042;-87
2023/12/17 07:42:41;;;;;;;15.00;11.65;;;;;;;6.61;100.00;103532.44;5020642;28;20041;-86
2023/12/17 07:45:07;;;;;;;14.15;11.48;;;;;;;6.60;100.00;103527.97;5015380;28;20209;-90
2023/12/17 07:47:35;;;;;;;13.63;11.45;;;;;;;6.57;100.00;103527.09;5016282;28;20046;-87
2023/12/17 07:50:01;;;;;;;14.07;10.82;;;;;;;6.49;100.00;103512.03;5002290;28;20037;-87
2023/12/17 07:52:26;;;;;;;14.25;10.55;;;;;;;6.60;100.00;103538.56;5018461;28;20071;-86
2023/12/17 07:54:53;;;;;;;13.43;10.70;;;;;;;6.62;100.00;103531.53;4998260;28;20040;-89
2023/12/17 07:57:21;;;;;;;13.82;10.75;;;;;;;6.63;100.00;103532.44;5008325;28;20277;-89
2023/12/17 07:59:47;;;;;;;12.80;10.00;;;;;;;6.62;100.00;103535.94;5007044;28;20033;-87
2023/12/17 08:02:14;;;;;;;12.57;10.55;;;;;;;6.60;100.00;103538.56;5025858;28;20037;-89
2023/12/17 08:04:41;;;;;;;12.60;10.52;;;;;;;6.60;100.00;103543.84;5025569;28;20071;-87
2023/12/17 08:07:07;;;;;;;13.13;10.52;;;;;;;6.62;100.00;103541.25;5025086;28;20496;-87
2023/12/17 08:09:39;;;;;;;12.25;10.80;;;;;;;6.52;100.00;103528.78;5005123;28;20052;-88
2023/12/17 08:12:05;;;;;;;12.30;10.25;;;;;;;6.59;100.00;103541.22;5006076;28;20038;-90
2023/12/17 08:14:31;;;;;;;12.85;11.27;;;;;;;6.58;100.00;103545.63;5023222;28;20041;-90
2023/12/17 08:16:56;;;;;;;14.55;12.05;;;;;;;6.50;100.00;103531.44;5031218;28;20022;-88
2023/12/17 08:19:22;;;;;;;13.43;11.10;;;;;;;6.57;100.00;103541.22;5019900;28;20445;-89
2023/12/17 08:21:47;;;;;;;13.88;11.13;;;;;;;6.59;100.00;103547.38;5007470;28;20041;-90
2023/12/17 08:24:12;;;;;;;18.15;13.45;;;;;;;6.59;100.00;103546.50;5020068;28;20281;-90
2023/12/17 08:26:38;;;;;;;17.58;13.88;;;;;;;6.55;100.00;103542.06;5019413;28;20647;-87
2023/12/17 08:29:06;;;;;;;17.83;13.82;;;;;;;6.52;100.00;103542.94;5020798;28;20117;-88
2023/12/17 08:31:31;;;;;;;18.05;14.20;;;;;;;6.35;100.00;103518.94;5003818;28;20066;-89
2023/12/17 08:33:57;;;;;;;17.75;14.07;;;;;;;6.56;100.00;103557.06;5016836;28;20038;-88
2023/12/17 08:36:23;;;;;;;18.85;14.43;;;;;;;6.41;100.00;103536.66;5021473;28;20562;-90
2023/12/17 08:38:51;;;;;;;20.13;14.98;;;;;;;6.48;100.00;103555.25;5015434;28;20504;-88
2023/12/17 08:41:16;;;;;;;20.13;14.73;;;;;;;6.38;100.00;103537.50;5017669;28;20037;-87
2023/12/17 08:43:42;;;;;;;17.52;14.02;;;;;;;6.48;100.00;103555.25;5012663;28;20037;-86
2023/12/17 08:46:07;;;;;;;19.83;14.27;;;;;;;6.46;100.00;103558.72;5020093;28;20040;-87
2023/12/17 08:48:35;;;;;;;20.85;14.43;;;;;;;6.46;100.00;103551.69;5019643;28;20033;-86
2023/12/17 08:51:01;;;;;;;21.90;15.80;;;;;;;6.38;100.00;103550.72;5018095;28;20038;-89
2023/12/17 08:53:26;;;;;;;19.92;15.48;;;;;;;6.42;100.00;103559.56;5024196;28;20045;-88
2023/12/17 08:55:52;;;;;;;21.17;15.55;;;;;;;6.40;100.00;103548.09;5021541;28;20029;-86
2023/12/17 08:58:17;;;;;;;23.52;17.20;;;;;;;6.38;100.00;103553.38;5019727;28;20041;-87
2023/12/17 09:00:43;;;;;;;22.70;16.55;;;;;;;6.31;100.00;103550.63;5024400;28;20302;-89
2023/12/17 09:03:08;;;;;;;23.15;17.48;;;;;;;6.36;100.00;103565.69;5011739;28;20041;-88
2023/12/17 09:05:37;;;;;;;22.45;16.98;;;;;;;6.35;100.00;103561.25;5015502;28;20076;-86
2023/12/17 09:08:05;;;;;;;26.75;20.10;;;;;;;6.33;100.00;103557.72;5020965;28;20044;-85
2023/12/17 09:10:31;;;;;;;36.47;25.45;;;;;;;6.30;100.00;103555.03;5015902;28;20162;-86
2023/12/17 09:12:57;;;;;;;35.75;26.63;;;;;;;6.23;100.00;103546.19;5015783;28;20453;-85
2023/12/17 09:15:22;;;;;;;40.67;28.30;;;;;;;6.17;100.00;103547.84;5028335;28;20795;-86
2023/12/17 09:17:48;;;;;;;40.70;27.83;;;;;;;6.18;100.00;103545.22;5025569;28;20026;-86
2023/12/17 09:20:13;;;;;;;37.17;28.35;;;;;;;6.20;100.00;103561.13;5025051;28;20041;-86
2023/12/17 09:22:40;;;;;;;40.15;27.88;;;;;;;6.12;100.00;103557.50;5011289;28;20131;-86
2023/12/17 09:25:06;;;;;;;40.53;29.20;;;;;;;6.08;100.00;103555.69;5018236;28;20515;-86
2023/12/17 09:27:31;;;;;;;39.58;29.13;;;;;;;6.10;100.00;103568.03;5022422;28;20465;-86
2023/12/17 09:29:57;;;;;;;37.65;29.08;;;;;;;6.07;100.00;103564.50;5023005;28;20213;-84
2023/12/17 09:32:22;;;;;;;43.08;30.65;;;;;;;6.06;100.00;103560.06;5018641;28;20041;-86
2023/12/17 09:34:48;;;;;;;37.72;28.13;;;;;;;6.00;100.00;103560.91;5009190;28;20045;-85
2023/12/17 09:37:13;;;;;;;43.65;29.90;;;;;;;6.01;100.00;103564.41;5022030;28;20040;-84
2023/12/17 09:39:38;;;;;;;40.28;28.98;;;;;;;5.97;100.00;103563.50;5002104;28;20095;-84
2023/12/17 09:42:04;;;;;;;40.05;28.35;;;;;;;5.95;100.00;103562.59;5012120;28;20419;-84
2023/12/17 09:44:29;;;;;;;34.25;26.10;;;;;;;5.91;100.00;103564.28;5002084;28;20038;-85
2023/12/17 09:46:55;;;;;;;37.35;27.17;;;;;;;5.95;100.00;103579.34;5011180;28;20048;-85
2023/12/17 09:49:21;;;;;;;31.40;24.27;;;;;;;5.93;100.00;103573.13;5015016;28;20093;-85
2023/12/17 09:51:50;;;;;;;30.38;23.00;;;;;;;5.90;100.00;103578.38;5003547;28;20042;-88
2023/12/17 09:54:16;;;;;;;29.10;23.42;;;;;;;5.87;100.00;103575.69;5021908;28;20072;-89
2023/12/17 09:56:46;;;;;;;29.83;23.85;;;;;;;5.84;100.00;103573.00;5016184;28;20061;-88
2023/12/17 09:59:11;;;;;;;29.27;23.83;;;;;;;5.88;100.00;103571.28;5027307;28;20044;-89
2023/12/17 10:01:37;;;;;;;29.83;23.63;;;;;;;5.90;100.00;103570.44;5022616;28;20034;-90
2023/12/17 10:04:03;;;;;;;28.73;23.92;;;;;;;5.82;100.00;103545.69;5017971;28;20108;-91
2023/12/17 10:06:28;;;;;;;31.17;24.25;;;;;;;5.89;100.00;103568.66;5020966;28;20038;-88
2023/12/17 10:08:58;;;;;;;36.45;26.25;;;;;;;5.92;100.00;103570.50;5023917;28;20045;-91
2023/12/17 10:11:24;;;;;;;36.83;27.23;;;;;;;5.94;100.00;103566.13;5025671;28;20432;-92
2023/12/17 10:13:51;;;;;;;41.58;29.38;;;;;;;5.91;100.00;103572.22;5022060;28;20042;-91
2023/12/17 10:16:16;;;;;;;38.00;28.02;;;;;;;5.89;100.00;103573.94;5017087;28;20034;-90
2023/12/17 10:18:48;;;;;;;36.35;26.17;;;;;;;5.93;100.00;103577.53;5023045;28;20017;-92
2023/12/17 10:21:13;;;;;;;33.97;26.10;;;;;;;5.69;100.00;103538.47;5017885;28;20061;-93
2023/12/17 10:23:46;;;;;;;43.90;30.15;;;;;;;5.91;100.00;103572.22;5027796;28;20061;-86
2023/12/17 10:26:12;;;;;;;36.40;26.50;;;;;;;5.97;100.00;103587.28;5024168;28;20240;-89
2023/12/17 10:28:43;;;;;;;34.72;25.45;;;;;;;5.94;100.00;103567.00;5017832;28;20101;-88
2023/12/17 10:31:10;;;;;;;32.97;23.75;;;;;;;6.02;100.00;103568.81;4998091;28;20179;-87
2023/12/17 10:33:43;;;;;;;32.35;24.00;;;;;;;6.05;100.00;103569.75;5023140;28;20116;-87
2023/12/17 10:36:10;;;;;;;33.08;25.00;;;;;;;6.09;100.00;103568.03;5015155;28;20037;-87
2023/12/17 10:38:37;;;;;;;37.42;26.77;;;;;;;6.06;100.00;103554.78;5013087;28;20034;-85
2023/12/17 10:41:06;;;;;;;45.30;31.35;;;;;;;6.11;100.00;103548.69;5003735;28;20202;-87
2023/12/17 10:43:33;;;;;;;45.05;30.27;;;;;;;6.17;100.00;103545.22;5014798;28;20033;-88
2023/12/17 10:45:59;;;;;;;42.22;28.98;;;;;;;6.20;100.00;103542.59;5015490;28;20512;-86
2023/12/17 10:48:26;;;;;;;42.72;27.17;;;;;;;6.21;100.00;103541.72;5017244;28;20045;-86
2023/12/17 10:50:52;;;;;;;37.97;27.10;;;;;;;6.27;100.00;103531.22;5001681;28;20435;-86
2023/12/17 10:53:18;;;;;;;40.28;26.20;;;;;;;6.35;100.00;103526.88;5015058;28;20061;-85
2023/12/17 10:55:43;;;;;;;33.60;23.65;;;;;;;6.35;100.00;103511.00;5022692;28;20037;-86
2023/12/17 10:58:15;;;;;;;34.22;22.52;;;;;;;6.40;100.00;103517.25;5015718;28;20500;-88
2023/12/17 11:00:40;;;;;;;36.08;23.63;;;;;;;6.45;100.00;103517.28;5027482;28;20041;-89
2023/12/17 11:03:08;;;;;;;31.55;23.05;;;;;;;6.61;100.00;103520.97;5024653;28;20032;-87